Time;durP1;ratioP1;P1;durP2;ratioP2;P2;SDS_P1;SDS_P2;PMS_P1;PMS_P2;Temp;Humidity;BMP_temperature;BMP_pressure;BME280_temperature;BME280_humidity;BME280_pressure;Samples;Min_cycle;Max_cycle;Signal;HPM_P1;HPM_P2
2021/11/10 00:01:16;;;;;;;11.10;9.52;;;;;;;8.63;72.65;101927.41;5002003;28;20032;-45
2021/11/10 00:03:41;;;;;;;9.73;8.20;;;;;;;8.63;72.41;101933.53;5008817;28;20395;-45
2021/11/10 00:06:06;;;;;;;9.57;7.97;;;;;;;8.64;72.47;101923.91;4993083;28;20072;-45
2021/11/10 00:08:31;;;;;;;11.40;9.23;;;;;;;8.63;72.24;101917.75;4997961;28;20065;-43
2021/11/10 00:10:57;;;;;;;10.20;8.40;;;;;;;8.62;72.36;101913.34;4995736;28;20023;-45
2021/11/10 00:13:22;;;;;;;11.18;9.25;;;;;;;8.60;72.51;101923.84;5001134;28;20057;-43
2021/11/10 00:15:49;;;;;;;9.65;8.20;;;;;;;8.59;72.41;101916.81;5005539;28;20409;-45
2021/11/10 00:18:15;;;;;;;9.25;8.23;;;;;;;8.59;72.33;101919.44;5002587;28;20371;-44
2021/11/10 00:20:41;;;;;;;8.85;7.45;;;;;;;8.59;72.41;101908.91;4996175;28;20022;-42
2021/11/10 00:23:07;;;;;;;9.73;7.97;;;;;;;8.58;72.36;101915.00;5004888;28;20026;-43
2021/11/10 00:25:32;;;;;;;9.93;8.75;;;;;;;8.59;72.30;101908.91;5005354;28;20037;-44
2021/11/10 00:27:57;;;;;;;14.88;8.07;;;;;;;8.58;72.23;101909.75;5002935;28;20041;-44
2021/11/10 00:30:22;;;;;;;10.25;8.45;;;;;;;8.58;72.20;101904.50;5000290;28;20030;-45
2021/11/10 00:32:50;;;;;;;9.60;7.78;;;;;;;8.57;72.33;101905.34;4997547;28;20030;-45
2021/11/10 00:35:16;;;;;;;9.25;8.23;;;;;;;8.56;72.14;101919.38;5000430;28;20036;-44
2021/11/10 00:37:43;;;;;;;9.05;8.10;;;;;;;8.56;72.13;101914.13;4999323;28;20026;-44
2021/11/10 00:40:08;;;;;;;8.90;8.00;;;;;;;8.56;72.16;101916.75;5009047;28;20026;-43
2021/11/10 00:42:33;;;;;;;9.65;8.25;;;;;;;8.55;72.23;101920.25;5000994;28;20417;-42
2021/11/10 00:44:59;;;;;;;9.00;8.10;;;;;;;8.54;72.21;101917.56;5000046;28;20029;-45
2021/11/10 00:47:24;;;;;;;8.82;7.68;;;;;;;8.53;72.39;101921.94;5005023;28;20034;-45
2021/11/10 00:49:49;;;;;;;10.52;8.57;;;;;;;8.53;72.32;101908.78;5003525;28;20026;-45
2021/11/10 00:52:15;;;;;;;9.25;8.15;;;;;;;8.50;72.15;101908.69;5001499;28;20398;-45
2021/11/10 00:54:40;;;;;;;11.30;7.82;;;;;;;8.51;72.08;101914.84;4998956;28;21067;-43
2021/11/10 00:57:05;;;;;;;10.07;8.73;;;;;;;8.50;72.13;101908.69;4997954;28;20502;-42
2021/11/10 00:59:31;;;;;;;11.52;8.35;;;;;;;8.49;72.57;101914.81;4999970;28;20088;-43
2021/11/10 01:01:56;;;;;;;8.65;7.75;;;;;;;8.50;72.10;101907.81;5004126;28;20097;-43
2021/11/10 01:04:22;;;;;;;9.60;8.23;;;;;;;8.50;72.21;101907.81;4999934;28;20882;-42
2021/11/10 01:06:48;;;;;;;9.55;8.02;;;;;;;8.48;72.17;101899.91;4998989;28;20103;-45
2021/11/10 01:09:17;;;;;;;12.88;8.50;;;;;;;8.47;72.00;101888.50;5003906;28;20493;-43
2021/11/10 01:11:46;;;;;;;9.35;8.38;;;;;;;8.47;72.13;101887.59;5001946;28;20108;-42
2021/11/10 01:14:12;;;;;;;9.02;7.97;;;;;;;8.47;71.95;101882.34;4998080;28;20414;-44
2021/11/10 01:16:38;;;;;;;10.32;8.25;;;;;;;8.47;71.96;101882.34;5001519;28;20029;-44
2021/11/10 01:19:04;;;;;;;8.57;7.78;;;;;;;8.45;71.95;101877.06;4997293;28;20038;-44
2021/11/10 01:21:29;;;;;;;9.13;7.38;;;;;;;8.44;72.02;101863.91;5000737;28;20022;-45
2021/11/10 01:23:54;;;;;;;8.45;7.55;;;;;;;8.44;71.92;101854.25;4999040;28;20032;-44
2021/11/10 01:26:20;;;;;;;8.05;7.07;;;;;;;8.43;72.02;101846.31;5010121;28;20034;-44
2021/11/10 01:28:46;;;;;;;10.23;8.57;;;;;;;8.43;71.96;101835.81;4998666;28;20374;-43
2021/11/10 01:31:12;;;;;;;9.32;7.20;;;;;;;8.42;71.96;101841.94;4998237;28;20529;-42
2021/11/10 01:33:37;;;;;;;9.80;8.10;;;;;;;8.42;72.04;101841.94;4999425;28;20034;-44
2021/11/10 01:36:03;;;;;;;8.75;7.85;;;;;;;8.40;71.94;101830.53;5007770;28;20032;-45
2021/11/10 01:38:28;;;;;;;9.18;8.27;;;;;;;8.40;71.95;101831.38;4993339;28;20030;-45
2021/11/10 01:40:54;;;;;;;8.25;7.45;;;;;;;8.37;71.88;101838.34;4994290;28;20069;-45
2021/11/10 01:43:19;;;;;;;8.88;7.97;;;;;;;8.38;71.94;101846.25;5005426;28;20034;-43
2021/11/10 01:45:46;;;;;;;10.65;8.02;;;;;;;8.38;72.04;101840.09;5006218;28;20482;-44
2021/11/10 01:48:12;;;;;;;8.80;7.45;;;;;;;8.37;71.80;101839.22;4996395;28;20113;-44
2021/11/10 01:50:37;;;;;;;12.52;7.93;;;;;;;8.37;72.02;101827.81;4994987;28;20026;-43
2021/11/10 01:53:03;;;;;;;9.27;8.05;;;;;;;8.36;71.75;101824.31;4994538;28;20368;-43
2021/11/10 01:55:28;;;;;;;9.75;7.07;;;;;;;8.36;71.81;101828.69;5007219;28;20046;-44
2021/11/10 01:57:53;;;;;;;9.52;7.30;;;;;;;8.34;71.86;101828.66;4999292;28;20076;-44
2021/11/10 02:00:23;;;;;;;8.43;7.53;;;;;;;8.33;72.02;101822.50;5003549;28;20398;-44
2021/11/10 02:02:49;;;;;;;9.60;7.22;;;;;;;8.32;71.93;101815.50;4999779;28;20072;-45
2021/11/10 02:05:15;;;;;;;10.07;7.82;;;;;;;8.32;71.82;101815.50;4999703;28;20022;-44
2021/11/10 02:07:42;;;;;;;8.65;7.75;;;;;;;8.32;71.78;101815.50;5001169;28;20034;-44
2021/11/10 02:10:10;;;;;;;8.68;7.80;;;;;;;8.29;71.91;101807.53;5001644;28;20113;-44
2021/11/10 02:12:36;;;;;;;9.10;7.72;;;;;;;8.30;71.84;101805.81;5003523;28;20505;-44
2021/11/10 02:15:04;;;;;;;8.80;7.90;;;;;;;8.31;71.75;101807.56;5003808;28;20026;-45
2021/11/10 02:17:29;;;;;;;8.70;7.72;;;;;;;8.29;71.88;101804.91;4997143;28;20028;-44
2021/11/10 02:19:54;;;;;;;9.35;7.68;;;;;;;8.30;71.76;101801.41;4998210;28;20033;-44
2021/11/10 02:22:21;;;;;;;8.68;7.78;;;;;;;8.29;71.74;101793.50;5006921;28;20030;-44
2021/11/10 02:24:47;;;;;;;8.80;7.75;;;;;;;8.28;71.83;101797.00;5005263;28;20482;-44
2021/11/10 02:27:18;;;;;;;8.80;7.45;;;;;;;8.28;71.78;101797.00;5009485;28;20040;-44
2021/11/10 02:29:44;;;;;;;;;;;;;;;8.24;71.81;101788.19;5002496;28;20034;-45
2021/11/10 02:32:11;;;;;;;8.80;7.72;;;;;;;8.23;71.76;101785.53;5006755;28;19914;-45
2021/11/10 02:34:37;;;;;;;9.10;8.10;;;;;;;8.23;71.75;101786.38;5008305;28;20057;-44
2021/11/10 02:37:03;;;;;;;9.15;8.27;;;;;;;8.23;71.89;101782.91;5003498;28;20447;-44
2021/11/10 02:39:30;;;;;;;9.13;8.18;;;;;;;8.21;71.81;101788.13;5010248;28;20470;-45
2021/11/10 02:41:56;;;;;;;9.38;8.48;;;;;;;8.22;71.86;101782.00;5009828;28;20413;-45
2021/11/10 02:44:22;;;;;;;9.52;8.63;;;;;;;8.22;71.81;101784.63;5003467;28;20026;-45
2021/11/10 02:46:49;;;;;;;8.80;7.90;;;;;;;8.21;71.82;101788.97;5006734;28;20110;-45
2021/11/10 02:49:15;;;;;;;10.23;8.38;;;;;;;8.20;71.80;101778.44;5006065;28;20021;-44
2021/11/10 02:51:59;;;;;;;8.65;7.78;;;;;;;8.20;71.54;101794.22;4997743;28;20026;-45
2021/11/10 02:54:25;;;;;;;10.45;8.27;;;;;;;8.17;71.65;101799.44;5011392;28;20050;-45
2021/11/10 02:56:56;;;;;;;10.00;8.50;;;;;;;8.18;71.64;101802.09;4997366;28;20033;-45
2021/11/10 02:59:22;;;;;;;9.32;8.32;;;;;;;8.17;71.75;101804.69;4997769;28;20037;-45
2021/11/10 03:01:48;;;;;;;9.50;8.10;;;;;;;8.17;71.75;101800.28;5000278;28;20048;-45
2021/11/10 03:04:19;;;;;;;10.90;8.73;;;;;;;8.17;71.60;101800.28;4999606;28;20108;-45
2021/11/10 03:06:45;;;;;;;9.27;8.35;;;;;;;8.15;71.58;101803.75;5008409;28;20038;-43
2021/11/10 03:09:10;;;;;;;8.65;7.85;;;;;;;8.15;71.58;101791.50;5011059;28;20034;-43
2021/11/10 03:11:35;;;;;;;8.77;7.88;;;;;;;8.13;71.61;101802.84;5013038;28;20387;-44
2021/11/10 03:14:01;;;;;;;9.07;8.13;;;;;;;8.15;71.51;101806.38;5006996;28;20508;-44
2021/11/10 03:16:26;;;;;;;8.98;8.07;;;;;;;8.13;71.59;101797.59;5009934;28;20029;-44
2021/11/10 03:18:51;;;;;;;8.82;7.90;;;;;;;8.12;71.61;101806.31;5004891;28;20030;-44
2021/11/10 03:21:16;;;;;;;9.55;8.45;;;;;;;8.09;71.64;101802.78;5000410;28;20037;-44
2021/11/10 03:23:42;;;;;;;9.18;8.23;;;;;;;8.09;71.66;101791.38;5003055;28;20387;-44
2021/11/10 03:26:07;;;;;;;9.20;8.25;;;;;;;8.09;71.53;101787.03;5005217;28;20033;-44
2021/11/10 03:28:32;;;;;;;8.88;7.97;;;;;;;8.09;71.43;101800.16;5003430;28;20139;-44
2021/11/10 03:30:58;;;;;;;8.80;7.90;;;;;;;8.07;71.57;101799.22;4999818;28;20062;-44
2021/11/10 03:33:23;;;;;;;9.65;8.65;;;;;;;8.05;71.65;101790.47;5006736;28;20153;-44
2021/11/10 03:35:48;;;;;;;9.57;8.68;;;;;;;8.07;71.55;101799.22;5003789;28;20034;-44
2021/11/10 03:38:14;;;;;;;9.43;8.40;;;;;;;8.06;71.57;101800.09;5002261;28;20359;-44
2021/11/10 03:40:39;;;;;;;9.50;8.45;;;;;;;8.05;71.50;101792.19;5001715;28;20479;-44
2021/11/10 03:43:04;;;;;;;11.45;8.80;;;;;;;8.06;71.24;101793.94;5004981;28;20026;-44
2021/11/10 03:45:29;;;;;;;9.60;8.57;;;;;;;8.04;71.45;101798.31;5000487;28;20022;-44
2021/11/10 03:47:55;;;;;;;11.05;8.55;;;;;;;8.02;71.46;101795.66;5000878;28;20084;-44
2021/11/10 03:50:21;;;;;;;9.35;8.10;;;;;;;8.04;71.34;101800.94;5007684;28;20118;-43
2021/11/10 03:52:47;;;;;;;9.38;8.27;;;;;;;8.02;71.50;101800.91;4996789;28;20022;-44
2021/11/10 03:55:12;;;;;;;10.27;9.27;;;;;;;8.01;71.35;101796.50;5000779;28;20034;-45
2021/11/10 03:57:38;;;;;;;10.55;8.65;;;;;;;7.99;71.36;101797.31;5001456;28;20108;-44
2021/11/10 04:00:05;;;;;;;8.32;7.43;;;;;;;8.00;71.42;101786.84;4996822;28;20091;-44
2021/11/10 04:02:30;;;;;;;9.45;8.32;;;;;;;7.99;71.35;101797.31;5004403;28;20018;-44
2021/11/10 04:04:56;;;;;;;9.70;7.78;;;;;;;7.98;71.28;101803.44;5010325;28;20034;-44
2021/11/10 04:07:22;;;;;;;10.90;8.73;;;;;;;7.97;71.39;101797.28;4999467;28;20037;-43
2021/11/10 04:09:48;;;;;;;10.32;8.85;;;;;;;7.96;71.36;101787.63;4995097;28;20045;-43
2021/11/10 04:12:13;;;;;;;8.63;7.78;;;;;;;7.96;71.39;101795.50;5000626;28;20413;-44
2021/11/10 04:14:38;;;;;;;9.27;8.40;;;;;;;7.95;71.48;101789.38;5004654;28;20022;-44
2021/11/10 04:17:05;;;;;;;9.15;8.23;;;;;;;7.95;71.07;101793.75;4997058;28;20049;-44
2021/11/10 04:19:33;;;;;;;11.20;8.80;;;;;;;7.94;71.29;101782.34;4993056;28;20524;-43
2021/11/10 04:21:59;;;;;;;12.25;9.32;;;;;;;7.92;71.37;101776.19;5003608;28;20033;-43
2021/11/10 04:24:24;;;;;;;10.32;8.02;;;;;;;7.93;71.44;101780.56;4993658;28;20046;-44
2021/11/10 04:26:50;;;;;;;9.98;8.60;;;;;;;7.90;71.35;101779.66;4993924;28;20041;-43
2021/11/10 04:29:16;;;;;;;10.32;8.65;;;;;;;7.91;71.15;101776.16;5001253;28;20084;-44
2021/11/10 04:31:43;;;;;;;10.02;8.35;;;;;;;7.90;71.28;101777.88;4993390;28;20064;-43
2021/11/10 04:34:09;;;;;;;10.43;8.65;;;;;;;7.89;71.34;101777.84;5001870;28;20136;-43
2021/11/10 04:36:35;;;;;;;8.65;7.80;;;;;;;7.88;71.23;101773.47;5005050;28;20770;-44
2021/11/10 04:39:00;;;;;;;10.25;8.10;;;;;;;7.88;71.14;101776.09;5006514;28;20120;-44
2021/11/10 04:41:26;;;;;;;9.70;8.70;;;;;;;7.87;71.28;101775.19;5008123;28;20036;-44
2021/11/10 04:43:52;;;;;;;8.90;8.00;;;;;;;7.85;71.32;101773.41;5003807;28;20245;-44
2021/11/10 04:46:29;;;;;;;10.38;8.35;;;;;;;7.86;71.17;101783.94;5001218;28;20033;-44
2021/11/10 04:48:55;;;;;;;9.05;8.13;;;;;;;7.85;71.23;101778.66;4998647;28;20030;-44
2021/11/10 04:51:25;;;;;;;8.63;7.60;;;;;;;7.85;70.95;101781.28;4998349;28;20385;-44
2021/11/10 04:53:52;;;;;;;11.13;8.55;;;;;;;7.83;71.11;101771.63;5001616;28;20105;-44
2021/11/10 04:56:20;;;;;;;10.40;8.85;;;;;;;7.83;71.28;101770.72;5011365;28;20022;-44
2021/11/10 04:58:46;;;;;;;9.35;7.90;;;;;;;7.83;70.96;101769.00;5009828;28;20022;-44
2021/11/10 05:01:18;;;;;;;9.43;8.52;;;;;;;7.82;71.02;101758.47;5002578;28;20030;-44
2021/11/10 05:03:43;;;;;;;8.88;7.95;;;;;;;7.78;71.25;101751.38;5010172;28;20109;-44
2021/11/10 05:06:09;;;;;;;9.57;7.80;;;;;;;7.77;71.12;101753.13;5010507;28;20118;-43
2021/11/10 05:08:34;;;;;;;9.32;8.20;;;;;;;7.79;71.11;101755.78;4997739;28;20501;-44
2021/11/10 05:10:59;;;;;;;9.75;8.32;;;;;;;7.77;71.21;101755.75;4992337;28;20030;-44
2021/11/10 05:13:26;;;;;;;9.15;8.25;;;;;;;7.76;71.19;101767.09;4992455;28;20486;-44
2021/11/10 05:15:52;;;;;;;9.43;8.48;;;;;;;7.78;71.16;101760.16;4995850;28;20426;-44
2021/11/10 05:18:18;;;;;;;8.50;7.47;;;;;;;7.75;71.10;101753.94;5011677;28;20022;-44
2021/11/10 05:20:44;;;;;;;10.88;8.75;;;;;;;7.73;71.14;101747.78;5009752;28;20029;-44
2021/11/10 05:23:10;;;;;;;9.63;8.63;;;;;;;7.74;71.21;101741.69;5009535;28;20425;-44
2021/11/10 05:25:35;;;;;;;9.75;8.20;;;;;;;7.73;71.04;101742.53;5001991;28;20123;-44
2021/11/10 05:28:00;;;;;;;10.48;8.63;;;;;;;7.73;71.10;101743.41;5011673;28;20025;-44
2021/11/10 05:30:27;;;;;;;10.20;8.82;;;;;;;7.73;71.11;101729.41;5011534;28;20064;-44
2021/11/10 05:32:52;;;;;;;11.93;8.68;;;;;;;7.72;70.94;101738.13;5012326;28;20107;-43
2021/11/10 05:35:17;;;;;;;9.88;8.77;;;;;;;7.70;70.77;101735.47;5013831;28;20343;-44
2021/11/10 05:37:43;;;;;;;11.20;9.00;;;;;;;7.69;71.05;101739.84;5005041;28;20037;-44
2021/11/10 05:40:11;;;;;;;11.35;8.90;;;;;;;7.70;70.88;101745.97;5008144;28;20025;-44
2021/11/10 05:42:37;;;;;;;9.50;8.50;;;;;;;7.70;70.89;101735.47;4997143;28;20038;-44
2021/11/10 05:45:06;;;;;;;12.68;8.93;;;;;;;7.68;71.07;101737.19;4995812;28;20374;-44
2021/11/10 05:47:31;;;;;;;9.32;8.43;;;;;;;7.67;71.04;101733.66;4995630;28;20023;-44
2021/11/10 05:49:57;;;;;;;10.50;9.48;;;;;;;7.64;70.93;101724.84;4995489;28;20101;-43
2021/11/10 05:52:22;;;;;;;10.27;8.60;;;;;;;7.64;71.11;101728.34;4995685;28;20188;-44
2021/11/10 05:54:48;;;;;;;12.38;9.60;;;;;;;7.65;70.98;101724.00;5011408;28;20478;-44
2021/11/10 05:57:14;;;;;;;10.20;9.10;;;;;;;7.64;70.80;101730.97;5007340;28;20026;-44
2021/11/10 05:59:41;;;;;;;9.98;8.68;;;;;;;7.64;70.86;101735.34;4995235;28;20449;-44
2021/11/10 06:02:06;;;;;;;10.40;9.40;;;;;;;7.61;70.97;101733.56;4995659;28;20030;-44
2021/11/10 06:04:32;;;;;;;12.00;9.20;;;;;;;7.63;70.92;101738.81;4995261;28;20030;-43
2021/11/10 06:06:57;;;;;;;10.32;8.73;;;;;;;7.61;70.86;101748.41;5005379;28;20367;-44
2021/11/10 06:09:22;;;;;;;11.15;9.50;;;;;;;7.60;70.92;101749.28;5010071;28;20501;-44
2021/11/10 06:11:48;;;;;;;10.63;9.52;;;;;;;7.58;70.70;101747.47;5011129;28;20488;-44
2021/11/10 06:14:15;;;;;;;11.32;8.98;;;;;;;7.57;70.58;101748.34;5009767;28;20038;-44
2021/11/10 06:16:40;;;;;;;11.23;10.02;;;;;;;7.58;70.63;101752.72;5004474;28;20022;-44
2021/11/10 06:19:06;;;;;;;10.75;9.65;;;;;;;7.55;71.12;101742.19;5012465;28;20088;-44
2021/11/10 06:21:31;;;;;;;10.10;9.10;;;;;;;7.56;70.73;101743.97;5011558;28;20038;-43
2021/11/10 06:23:56;;;;;;;10.95;9.32;;;;;;;7.55;71.02;101736.94;5010106;28;20030;-44
2021/11/10 06:26:22;;;;;;;10.32;9.32;;;;;;;7.55;70.81;101747.44;5014598;28;20022;-44
2021/11/10 06:28:50;;;;;;;11.35;8.82;;;;;;;7.55;70.67;101752.69;5009707;28;20084;-43
2021/11/10 06:31:15;;;;;;;10.40;8.82;;;;;;;7.53;70.70;101746.50;5014685;28;20105;-44
2021/11/10 06:33:41;;;;;;;10.73;9.00;;;;;;;7.54;70.75;101757.91;5014346;28;20034;-43
2021/11/10 06:36:06;;;;;;;10.35;9.35;;;;;;;7.52;70.89;101757.88;5012869;28;20033;-44
2021/11/10 06:38:32;;;;;;;12.38;9.15;;;;;;;7.51;70.65;101756.13;5013954;28;20018;-44
2021/11/10 06:40:57;;;;;;;11.82;9.38;;;;;;;7.50;70.91;101745.59;5014265;28;20403;-44
2021/11/10 06:43:25;;;;;;;10.07;8.65;;;;;;;7.50;70.76;101743.81;5010494;28;20014;-44
2021/11/10 06:45:50;;;;;;;10.13;8.80;;;;;;;7.48;70.78;101739.41;4994823;28;20494;-43
2021/11/10 06:48:15;;;;;;;10.90;8.90;;;;;;;7.49;70.78;101752.56;4992966;28;20029;-44
2021/11/10 06:54:02;;;;;;;11.07;8.95;;;;;;;7.44;70.84;101752.44;5006008;28;20521;-44
2021/11/10 06:56:28;;;;;;;12.57;10.50;;;;;;;7.46;70.76;101762.13;5013760;28;20029;-44
2021/11/10 06:58:53;;;;;;;11.85;9.77;;;;;;;7.44;70.66;101754.22;5013924;28;20025;-44
2021/11/10 07:01:18;;;;;;;12.75;11.45;;;;;;;7.40;70.59;101747.13;5013894;28;20180;-44
2021/11/10 07:03:44;;;;;;;11.55;10.35;;;;;;;7.41;70.64;101754.13;5011637;28;20057;-44
2021/11/10 07:06:09;;;;;;;11.98;10.23;;;;;;;7.41;70.72;101756.75;5000486;28;20018;-44
2021/11/10 07:08:34;;;;;;;12.43;11.13;;;;;;;7.41;70.91;101764.63;4994091;28;20041;-44
2021/11/10 07:11:00;;;;;;;12.27;10.77;;;;;;;7.40;70.85;101762.88;4994006;28;20026;-44
2021/11/10 07:13:25;;;;;;;11.95;9.93;;;;;;;7.40;70.42;101774.25;5004542;28;20034;-43
2021/11/10 07:15:51;;;;;;;10.98;9.88;;;;;;;7.38;70.82;101778.59;5013203;28;20034;-44
2021/11/10 07:18:16;;;;;;;10.25;9.13;;;;;;;7.38;70.87;101786.47;5003301;28;20022;-44
2021/11/10 07:20:42;;;;;;;11.80;9.93;;;;;;;7.40;70.83;101794.38;4994101;28;20029;-44
2021/11/10 07:23:07;;;;;;;12.25;10.27;;;;;;;7.39;70.63;101795.19;5000278;28;20398;-44
2021/11/10 07:25:32;;;;;;;14.02;10.30;;;;;;;7.39;70.72;101789.94;4998966;28;20041;-44
2021/11/10 07:27:58;;;;;;;11.70;10.25;;;;;;;7.36;70.78;101789.88;5004824;28;20030;-43
2021/11/10 07:30:23;;;;;;;11.82;9.65;;;;;;;7.37;70.60;101778.56;5012780;28;20397;-44
2021/11/10 07:32:49;;;;;;;12.25;10.15;;;;;;;7.36;70.71;101772.41;5013358;28;20072;-44
2021/11/10 07:35:14;;;;;;;12.88;9.55;;;;;;;7.37;70.42;101762.81;5013075;28;20034;-43
2021/11/10 07:37:41;;;;;;;15.65;10.55;;;;;;;7.36;70.45;101768.88;5013345;28;20091;-43
2021/11/10 07:40:07;;;;;;;11.40;10.15;;;;;;;7.35;70.53;101767.13;4996223;28;20038;-44
2021/11/10 07:42:34;;;;;;;11.98;10.48;;;;;;;7.34;70.56;101760.09;4993594;28;20050;-43
2021/11/10 07:45:08;;;;;;;11.95;9.18;;;;;;;7.35;70.40;101761.88;4993708;28;20065;-44
2021/11/10 07:47:46;;;;;;;11.98;10.30;;;;;;;7.31;70.27;101753.91;5008400;28;20033;-44
2021/11/10 07:50:15;;;;;;;11.25;9.18;;;;;;;7.32;70.69;101753.09;4993256;28;20088;-43
2021/11/10 07:52:40;;;;;;;11.25;10.13;;;;;;;7.32;70.50;101760.06;5011898;28;20025;-43
2021/11/10 07:55:06;;;;;;;12.15;9.88;;;;;;;7.32;70.56;101771.47;5012378;28;20030;-43
2021/11/10 07:57:34;;;;;;;11.25;9.88;;;;;;;7.30;70.41;101773.16;5012689;28;20452;-44
2021/11/10 08:00:01;;;;;;;11.88;10.18;;;;;;;7.30;70.62;101767.91;5012038;28;20034;-44
2021/11/10 08:02:26;;;;;;;11.05;9.85;;;;;;;7.31;70.57;101777.53;4995248;28;20026;-43
2021/11/10 08:04:52;;;;;;;11.82;9.70;;;;;;;7.31;70.52;101781.94;4995136;28;20018;-44
2021/11/10 08:07:17;;;;;;;11.38;9.55;;;;;;;7.28;70.44;101785.38;5012203;28;20036;-44
2021/11/10 08:09:42;;;;;;;11.55;9.65;;;;;;;7.26;70.55;101781.81;4997689;28;20034;-44
2021/11/10 08:12:08;;;;;;;11.13;9.98;;;;;;;7.25;70.69;101773.91;4992946;28;20025;-44
2021/11/10 08:14:33;;;;;;;11.45;10.25;;;;;;;7.26;70.58;101775.66;4993423;28;20405;-44
2021/11/10 08:16:58;;;;;;;11.90;9.57;;;;;;;7.28;70.42;101771.34;4993179;28;20485;-44
2021/11/10 08:19:25;;;;;;;11.15;9.45;;;;;;;7.28;70.65;101769.63;4992687;28;20053;-44
2021/11/10 08:21:50;;;;;;;11.55;9.90;;;;;;;7.26;70.59;101760.81;4998196;28;20025;-44
2021/11/10 08:24:16;;;;;;;12.00;10.77;;;;;;;7.26;70.68;101771.31;5012175;28;20092;-44
2021/11/10 08:26:42;;;;;;;11.20;10.10;;;;;;;7.27;70.66;101762.59;5012308;28;20030;-44
2021/11/10 08:29:08;;;;;;;10.75;9.65;;;;;;;7.27;70.73;101759.97;5012438;28;20036;-44
2021/11/10 08:31:33;;;;;;;10.52;9.32;;;;;;;7.25;70.50;101766.03;5012312;28;20026;-43
2021/11/10 08:33:58;;;;;;;10.43;9.35;;;;;;;7.28;70.55;101759.13;5011105;28;20084;-44
2021/11/10 08:36:25;;;;;;;11.45;9.55;;;;;;;7.28;70.60;101769.63;5012347;28;20030;-43
2021/11/10 08:38:51;;;;;;;12.50;10.00;;;;;;;7.26;70.53;101776.56;5011876;28;20013;-44
2021/11/10 08:41:20;;;;;;;10.55;9.07;;;;;;;7.25;70.77;101777.44;5007238;28;20391;-43
2021/11/10 08:43:46;;;;;;;10.25;9.18;;;;;;;7.25;70.71;101780.06;4994707;28;20084;-43
2021/11/10 08:46:11;;;;;;;10.23;9.20;;;;;;;7.25;70.39;101785.28;4992759;28;20034;-43
2021/11/10 08:48:37;;;;;;;11.63;10.27;;;;;;;7.24;70.67;101785.25;4992264;28;20104;-44
2021/11/10 08:51:02;;;;;;;10.02;9.02;;;;;;;7.25;70.43;101784.41;5007967;28;20027;-44
2021/11/10 08:53:28;;;;;;;10.02;8.88;;;;;;;7.24;70.50;101778.25;4992377;28;20037;-43
2021/11/10 08:55:56;;;;;;;10.65;9.00;;;;;;;7.24;70.63;101778.25;4992192;28;20022;-43
2021/11/10 08:58:22;;;;;;;9.38;8.45;;;;;;;7.26;70.54;101779.19;5006775;28;20029;-43
2021/11/10 09:00:47;;;;;;;10.18;9.10;;;;;;;7.26;70.51;101773.94;4992493;28;20034;-43
2021/11/10 09:03:14;;;;;;;8.88;7.97;;;;;;;7.26;70.82;101771.31;4992684;28;20026;-43
2021/11/10 09:05:40;;;;;;;9.20;8.30;;;;;;;7.26;71.04;101771.31;5006261;28;20033;-43
2021/11/10 09:08:05;;;;;;;11.23;9.20;;;;;;;7.26;70.72;101770.41;5002569;28;20320;-43
2021/11/10 09:10:33;;;;;;;10.13;8.63;;;;;;;7.26;70.43;101766.06;4996294;28;20037;-43
2021/11/10 09:12:58;;;;;;;9.88;8.68;;;;;;;7.27;70.48;101761.72;4996763;28;20417;-43
2021/11/10 09:15:24;;;;;;;9.35;8.38;;;;;;;7.27;70.79;101757.34;5007714;28;20116;-43
2021/11/10 09:17:49;;;;;;;9.85;8.85;;;;;;;7.28;70.65;101755.59;4996150;28;20022;-44
2021/11/10 09:20:18;;;;;;;9.90;8.57;;;;;;;7.27;70.34;101752.09;4996087;28;20022;-43
2021/11/10 09:22:47;;;;;;;12.10;8.90;;;;;;;7.28;70.53;101738.13;4996765;28;20034;-43
2021/11/10 09:25:13;;;;;;;9.00;8.10;;;;;;;7.29;70.63;101744.25;4995553;28;20038;-43
2021/11/10 09:27:39;;;;;;;9.52;8.52;;;;;;;7.29;70.75;101744.25;4996114;28;20109;-43
2021/11/10 09:30:16;;;;;;;8.55;7.65;;;;;;;7.30;70.52;101740.75;4996111;28;20109;-43
2021/11/10 09:32:42;;;;;;;8.82;7.72;;;;;;;7.30;70.50;101746.00;4996245;28;20089;-43
2021/11/10 09:35:09;;;;;;;11.60;7.88;;;;;;;7.30;70.75;101741.66;4996002;28;20019;-44
2021/11/10 09:37:39;;;;;;;8.90;7.55;;;;;;;7.31;70.79;101753.06;4995838;28;20022;-43
2021/11/10 09:40:07;;;;;;;10.18;8.60;;;;;;;7.31;70.61;101748.66;4995785;28;20030;-43
2021/11/10 09:42:34;;;;;;;10.40;8.75;;;;;;;7.31;70.65;101753.06;4997834;28;20124;-44
2021/11/10 09:44:59;;;;;;;9.02;7.65;;;;;;;7.32;70.49;101755.72;5015462;28;20397;-43
2021/11/10 09:47:25;;;;;;;8.63;7.82;;;;;;;7.33;70.61;101751.34;5002199;28;20486;-43
2021/11/10 09:49:51;;;;;;;8.90;7.65;;;;;;;7.32;70.49;101760.06;4995422;28;20034;-43
2021/11/10 09:52:16;;;;;;;10.32;8.00;;;;;;;7.33;70.80;101756.59;4995727;28;20072;-44
2021/11/10 09:54:43;;;;;;;8.93;8.02;;;;;;;7.33;70.74;101746.09;4995415;28;20057;-43
2021/11/10 09:57:08;;;;;;;9.48;8.38;;;;;;;7.33;70.85;101748.72;4995881;28;20026;-43
2021/11/10 09:59:36;;;;;;;10.82;8.18;;;;;;;7.34;70.72;101757.47;5012580;28;20552;-44
2021/11/10 10:02:01;;;;;;;10.18;8.15;;;;;;;7.32;70.56;101747.84;5012610;28;20026;-43
2021/11/10 10:04:28;;;;;;;9.80;8.32;;;;;;;7.34;70.90;101749.59;5014885;28;20042;-44
2021/11/10 10:06:53;;;;;;;8.90;7.95;;;;;;;7.33;70.80;101746.09;5014176;28;20506;-42
2021/11/10 10:09:19;;;;;;;9.55;8.35;;;;;;;7.34;70.84;101752.22;5013266;28;20040;-42
2021/11/10 10:11:45;;;;;;;8.63;7.82;;;;;;;7.34;70.50;101745.25;5015065;28;20030;-43
2021/11/10 10:14:11;;;;;;;9.10;7.85;;;;;;;7.35;70.75;101743.50;5015015;28;20041;-42
2021/11/10 10:16:37;;;;;;;9.73;8.00;;;;;;;7.34;70.95;101741.72;5008065;28;20021;-43
2021/11/10 10:19:10;;;;;;;9.20;8.00;;;;;;;7.34;70.90;101737.38;5006151;28;20470;-42
2021/11/10 10:21:40;;;;;;;9.52;7.95;;;;;;;7.34;70.88;101745.25;5013729;28;20034;-43
2021/11/10 10:24:15;;;;;;;9.57;7.45;;;;;;;7.34;70.84;101737.38;5014269;28;20053;-43
2021/11/10 10:26:41;;;;;;;8.25;7.43;;;;;;;7.32;70.98;101729.47;5013712;28;20478;-43
2021/11/10 10:29:10;;;;;;;9.35;8.18;;;;;;;7.34;70.75;101732.13;5014575;28;20029;-43
2021/11/10 10:31:36;;;;;;;9.02;7.43;;;;;;;7.32;70.61;101724.22;5014459;28;20032;-43
2021/11/10 10:34:07;;;;;;;8.95;7.28;;;;;;;7.37;70.56;101731.31;5012774;28;20536;-42
2021/11/10 10:36:37;;;;;;;8.95;8.05;;;;;;;7.38;70.83;101722.56;4994897;28;20045;-42
2021/11/10 10:39:09;;;;;;;8.07;7.32;;;;;;;7.38;70.63;101733.06;4994588;28;20022;-43
2021/11/10 10:41:40;;;;;;;10.43;8.25;;;;;;;7.37;70.78;101716.41;4994992;28;20026;-43
2021/11/10 10:44:25;;;;;;;8.90;8.00;;;;;;;7.39;70.63;101713.84;4994592;28;20467;-42
2021/11/10 10:47:02;;;;;;;9.52;7.32;;;;;;;7.39;70.56;101708.59;4994582;28;20038;-42
2021/11/10 10:49:32;;;;;;;8.88;7.50;;;;;;;7.40;70.95;101713.00;4994681;28;20086;-43
2021/11/10 10:52:18;;;;;;;8.13;7.00;;;;;;;7.41;70.86;101717.41;4994845;28;20030;-43
2021/11/10 10:54:46;;;;;;;8.13;7.32;;;;;;;7.40;70.75;101710.38;4994163;28;20030;-42
2021/11/10 10:57:14;;;;;;;7.78;6.97;;;;;;;7.41;70.51;101717.41;4994431;28;20024;-44
2021/11/10 10:59:39;;;;;;;10.23;7.57;;;;;;;7.42;70.62;101708.66;4994662;28;20026;-44
2021/11/10 11:02:06;;;;;;;8.40;7.53;;;;;;;7.43;70.71;101713.03;4993398;28;20022;-42
2021/11/10 11:04:32;;;;;;;7.57;6.43;;;;;;;7.44;70.86;101714.84;4994683;28;20026;-42
2021/11/10 11:07:08;;;;;;;8.88;6.97;;;;;;;7.44;70.75;101707.81;5001981;28;20036;-43
2021/11/10 11:09:48;;;;;;;9.18;7.30;;;;;;;7.43;70.65;101702.53;5013639;28;20048;-42
2021/11/10 11:12:32;;;;;;;9.38;7.60;;;;;;;7.45;70.76;101706.09;5011884;28;20025;-43
2021/11/10 11:15:14;;;;;;;9.60;7.28;;;;;;;7.46;70.84;101709.63;5001302;28;20113;-42
2021/11/10 11:17:42;;;;;;;9.07;6.95;;;;;;;7.44;71.15;101707.81;5008205;28;20113;-44
2021/11/10 11:20:10;;;;;;;8.68;7.47;;;;;;;7.45;70.69;101713.97;4999065;28;20023;-43
2021/11/10 11:22:45;;;;;;;10.02;7.57;;;;;;;7.45;70.73;101706.09;4995081;28;20453;-43
2021/11/10 11:25:28;;;;;;;7.97;7.18;;;;;;;7.45;70.77;101703.47;5012344;28;20026;-43
2021/11/10 11:28:03;;;;;;;8.88;7.70;;;;;;;7.45;71.15;101708.72;5012504;28;20161;-43
2021/11/10 11:30:30;;;;;;;9.10;7.30;;;;;;;7.46;70.80;101710.50;5013274;28;20033;-43